Terminal Aerodrome Forecast
Issued by NWS

Home | Current Version | Previous Version | Graphics & Text | Print | Product List | Glossary On
Versions: 1 2 3 4 5 6 7 8 9 10 11 12 13 14 15 16 17 18 19 20 21 22 23
055
FTUS43 KLOT 242100 AAA
TAFDPA
TAF AMD
KDPA 242100Z 2421/2518 22012G19KT P6SM FEW050 BKN250
     FM250100 22008KT P6SM BKN250
     FM250900 20004KT 3SM BR BKN150
     FM251400 15008KT 6SM BR SCT040 BKN150=

USA.gov is the U.S. government's official web portal to all federal, state and local government web resources and services.